sensor_id;sensor_type;location;lat;lon;timestamp;P1;durP1;ratioP1;P2;durP2;ratioP2
68872;SDS011;55907;50.806;12.882;2022-08-21T00:01:41;21.2;;;17.9;;
68872;SDS011;55907;50.806;12.882;2022-08-21T00:04:43;21.0;;;17.6;;
68872;SDS011;55907;50.806;12.882;2022-08-21T00:07:44;21.2;;;17.6;;
68872;SDS011;55907;50.806;12.882;2022-08-21T00:10:45;19.5;;;17.0;;
68872;SDS011;55907;50.806;12.882;2022-08-21T00:13:47;19.8;;;17.0;;
68872;SDS011;55907;50.806;12.882;2022-08-21T00:16:48;21.1;;;17.0;;
68872;SDS011;55907;50.806;12.882;2022-08-21T00:19:49;20.7;;;17.1;;
68872;SDS011;55907;50.806;12.882;2022-08-21T00:22:51;20.0;;;17.4;;
68872;SDS011;55907;50.806;12.882;2022-08-21T00:25:52;20.7;;;16.8;;
68872;SDS011;55907;50.806;12.882;2022-08-21T00:28:54;18.5;;;16.5;;
68872;SDS011;55907;50.806;12.882;2022-08-21T00:31:55;20.0;;;17.4;;
68872;SDS011;55907;50.806;12.882;2022-08-21T00:34:56;20.6;;;17.4;;
68872;SDS011;55907;50.806;12.882;2022-08-21T00:37:58;20.1;;;17.0;;
68872;SDS011;55907;50.806;12.882;2022-08-21T00:41:00;18.8;;;16.8;;
68872;SDS011;55907;50.806;12.882;2022-08-21T00:44:01;19.6;;;17.0;;
68872;SDS011;55907;50.806;12.882;2022-08-21T00:47:02;18.6;;;16.5;;
68872;SDS011;55907;50.806;12.882;2022-08-21T00:50:04;19.6;;;17.1;;
68872;SDS011;55907;50.806;12.882;2022-08-21T00:53:05;19.2;;;16.6;;
68872;SDS011;55907;50.806;12.882;2022-08-21T00:56:07;18.4;;;15.2;;
68872;SDS011;55907;50.806;12.882;2022-08-21T00:59:07;19.4;;;16.7;;
68872;SDS011;55907;50.806;12.882;2022-08-21T01:02:09;18.9;;;16.9;;
68872;SDS011;55907;50.806;12.882;2022-08-21T01:05:10;19.1;;;16.2;;
68872;SDS011;55907;50.806;12.882;2022-08-21T01:08:12;18.5;;;16.5;;
68872;SDS011;55907;50.806;12.882;2022-08-21T01:11:13;19.6;;;16.7;;
68872;SDS011;55907;50.806;12.882;2022-08-21T01:14:14;17.8;;;15.9;;
68872;SDS011;55907;50.806;12.882;2022-08-21T01:17:16;18.1;;;16.2;;
68872;SDS011;55907;50.806;12.882;2022-08-21T01:20:17;19.6;;;16.3;;
68872;SDS011;55907;50.806;12.882;2022-08-21T01:23:18;19.8;;;16.3;;
68872;SDS011;55907;50.806;12.882;2022-08-21T01:26:21;19.6;;;16.5;;
68872;SDS011;55907;50.806;12.882;2022-08-21T01:29:25;18.5;;;15.7;;
68872;SDS011;55907;50.806;12.882;2022-08-21T01:32:23;20.3;;;16.8;;
68872;SDS011;55907;50.806;12.882;2022-08-21T01:35:24;19.2;;;16.6;;
68872;SDS011;55907;50.806;12.882;2022-08-21T01:38:25;19.6;;;17.0;;
68872;SDS011;55907;50.806;12.882;2022-08-21T01:41:27;18.9;;;16.2;;
68872;SDS011;55907;50.806;12.882;2022-08-21T01:44:28;21.6;;;17.4;;
68872;SDS011;55907;50.806;12.882;2022-08-21T01:47:30;21.9;;;18.4;;
68872;SDS011;55907;50.806;12.882;2022-08-21T01:50:31;21.7;;;18.1;;
68872;SDS011;55907;50.806;12.882;2022-08-21T01:53:33;23.2;;;19.3;;
68872;SDS011;55907;50.806;12.882;2022-08-21T01:56:35;24.6;;;19.9;;
68872;SDS011;55907;50.806;12.882;2022-08-21T01:59:35;26.2;;;20.7;;
68872;SDS011;55907;50.806;12.882;2022-08-21T02:02:37;27.3;;;20.1;;
68872;SDS011;55907;50.806;12.882;2022-08-21T02:05:38;28.5;;;21.4;;
68872;SDS011;55907;50.806;12.882;2022-08-21T02:08:39;29.4;;;22.1;;
68872;SDS011;55907;50.806;12.882;2022-08-21T02:11:41;34.0;;;23.6;;
68872;SDS011;55907;50.806;12.882;2022-08-21T02:14:42;37.1;;;24.8;;
68872;SDS011;55907;50.806;12.882;2022-08-21T02:17:44;37.0;;;26.1;;
68872;SDS011;55907;50.806;12.882;2022-08-21T02:20:46;40.4;;;26.9;;
68872;SDS011;55907;50.806;12.882;2022-08-21T02:23:46;36.6;;;25.3;;
68872;SDS011;55907;50.806;12.882;2022-08-21T02:26:48;40.1;;;28.8;;
68872;SDS011;55907;50.806;12.882;2022-08-21T02:29:49;43.8;;;29.3;;
68872;SDS011;55907;50.806;12.882;2022-08-21T02:32:50;44.1;;;30.2;;
68872;SDS011;55907;50.806;12.882;2022-08-21T02:35:52;42.0;;;30.0;;
68872;SDS011;55907;50.806;12.882;2022-08-21T02:38:53;44.7;;;30.5;;
68872;SDS011;55907;50.806;12.882;2022-08-21T02:41:55;48.0;;;32.4;;
68872;SDS011;55907;50.806;12.882;2022-08-21T02:44:56;46.2;;;31.4;;
68872;SDS011;55907;50.806;12.882;2022-08-21T02:47:58;44.7;;;30.7;;
68872;SDS011;55907;50.806;12.882;2022-08-21T02:51:01;42.9;;;29.3;;
68872;SDS011;55907;50.806;12.882;2022-08-21T02:54:00;44.6;;;31.2;;
68872;SDS011;55907;50.806;12.882;2022-08-21T02:57:02;44.3;;;30.6;;
68872;SDS011;55907;50.806;12.882;2022-08-21T03:00:04;40.9;;;28.4;;
68872;SDS011;55907;50.806;12.882;2022-08-21T03:03:05;43.5;;;30.1;;
68872;SDS011;55907;50.806;12.882;2022-08-21T03:06:06;43.2;;;30.1;;
68872;SDS011;55907;50.806;12.882;2022-08-21T03:09:07;42.3;;;29.7;;
68872;SDS011;55907;50.806;12.882;2022-08-21T03:12:08;40.9;;;28.6;;
68872;SDS011;55907;50.806;12.882;2022-08-21T03:15:11;41.0;;;28.8;;
68872;SDS011;55907;50.806;12.882;2022-08-21T03:18:11;40.4;;;28.1;;
68872;SDS011;55907;50.806;12.882;2022-08-21T03:21:13;39.6;;;26.9;;
68872;SDS011;55907;50.806;12.882;2022-08-21T03:24:14;38.7;;;27.0;;
68872;SDS011;55907;50.806;12.882;2022-08-21T03:27:15;37.2;;;27.1;;
68872;SDS011;55907;50.806;12.882;2022-08-21T03:30:17;38.5;;;27.2;;
68872;SDS011;55907;50.806;12.882;2022-08-21T03:33:18;40.0;;;26.2;;
68872;SDS011;55907;50.806;12.882;2022-08-21T03:36:20;35.7;;;24.8;;
68872;SDS011;55907;50.806;12.882;2022-08-21T03:39:21;35.9;;;25.6;;
68872;SDS011;55907;50.806;12.882;2022-08-21T03:45:24;34.6;;;23.2;;
68872;SDS011;55907;50.806;12.882;2022-08-21T03:48:25;32.4;;;22.8;;
68872;SDS011;55907;50.806;12.882;2022-08-21T03:51:27;32.0;;;21.6;;
68872;SDS011;55907;50.806;12.882;2022-08-21T03:54:28;33.0;;;22.4;;
68872;SDS011;55907;50.806;12.882;2022-08-21T03:57:29;27.3;;;20.2;;
68872;SDS011;55907;50.806;12.882;2022-08-21T04:00:31;31.0;;;21.9;;
68872;SDS011;55907;50.806;12.882;2022-08-21T04:03:34;29.3;;;21.8;;
68872;SDS011;55907;50.806;12.882;2022-08-21T04:06:34;29.9;;;21.7;;
68872;SDS011;55907;50.806;12.882;2022-08-21T04:09:35;30.0;;;22.1;;
68872;SDS011;55907;50.806;12.882;2022-08-21T04:12:36;29.5;;;22.1;;
68872;SDS011;55907;50.806;12.882;2022-08-21T04:15:38;28.4;;;20.6;;
68872;SDS011;55907;50.806;12.882;2022-08-21T04:18:39;28.2;;;21.3;;
68872;SDS011;55907;50.806;12.882;2022-08-21T04:21:41;28.0;;;20.1;;
68872;SDS011;55907;50.806;12.882;2022-08-21T04:24:42;28.6;;;21.4;;
68872;SDS011;55907;50.806;12.882;2022-08-21T04:27:43;27.5;;;20.6;;
68872;SDS011;55907;50.806;12.882;2022-08-21T04:30:45;25.9;;;20.0;;
68872;SDS011;55907;50.806;12.882;2022-08-21T04:33:46;27.9;;;20.2;;
68872;SDS011;55907;50.806;12.882;2022-08-21T04:36:47;26.0;;;20.3;;
68872;SDS011;55907;50.806;12.882;2022-08-21T04:39:49;27.0;;;19.9;;
68872;SDS011;55907;50.806;12.882;2022-08-21T04:42:51;28.1;;;20.6;;
68872;SDS011;55907;50.806;12.882;2022-08-21T04:45:52;28.6;;;21.2;;
68872;SDS011;55907;50.806;12.882;2022-08-21T04:48:53;28.4;;;19.9;;
68872;SDS011;55907;50.806;12.882;2022-08-21T04:51:54;24.5;;;19.0;;
68872;SDS011;55907;50.806;12.882;2022-08-21T04:54:56;25.2;;;19.4;;
68872;SDS011;55907;50.806;12.882;2022-08-21T04:57:57;27.5;;;20.2;;
68872;SDS011;55907;50.806;12.882;2022-08-21T05:00:59;26.2;;;19.8;;
68872;SDS011;55907;50.806;12.882;2022-08-21T05:04:00;24.3;;;18.9;;
68872;SDS011;55907;50.806;12.882;2022-08-21T05:07:02;23.2;;;17.9;;
68872;SDS011;55907;50.806;12.882;2022-08-21T05:10:03;25.7;;;19.8;;
68872;SDS011;55907;50.806;12.882;2022-08-21T05:13:05;23.5;;;19.0;;
68872;SDS011;55907;50.806;12.882;2022-08-21T05:16:06;26.3;;;19.6;;
68872;SDS011;55907;50.806;12.882;2022-08-21T05:19:07;24.6;;;19.2;;
68872;SDS011;55907;50.806;12.882;2022-08-21T05:22:08;24.5;;;18.4;;
68872;SDS011;55907;50.806;12.882;2022-08-21T05:25:10;23.3;;;19.9;;
68872;SDS011;55907;50.806;12.882;2022-08-21T05:28:11;24.1;;;19.6;;
68872;SDS011;55907;50.806;12.882;2022-08-21T05:31:12;25.6;;;19.9;;
68872;SDS011;55907;50.806;12.882;2022-08-21T05:34:14;25.9;;;20.0;;
68872;SDS011;55907;50.806;12.882;2022-08-21T05:37:15;25.1;;;19.5;;
68872;SDS011;55907;50.806;12.882;2022-08-21T05:40:17;23.0;;;17.5;;
68872;SDS011;55907;50.806;12.882;2022-08-21T05:43:18;23.7;;;19.2;;
68872;SDS011;55907;50.806;12.882;2022-08-21T05:46:19;23.8;;;18.8;;
68872;SDS011;55907;50.806;12.882;2022-08-21T05:49:21;22.4;;;18.2;;
68872;SDS011;55907;50.806;12.882;2022-08-21T05:52:22;22.7;;;18.6;;
68872;SDS011;55907;50.806;12.882;2022-08-21T05:55:23;22.0;;;17.9;;
68872;SDS011;55907;50.806;12.882;2022-08-21T05:58:25;22.8;;;17.7;;
68872;SDS011;55907;50.806;12.882;2022-08-21T06:01:26;20.5;;;16.7;;
68872;SDS011;55907;50.806;12.882;2022-08-21T06:04:28;22.7;;;18.1;;
68872;SDS011;55907;50.806;12.882;2022-08-21T06:07:29;21.3;;;16.5;;
68872;SDS011;55907;50.806;12.882;2022-08-21T06:10:30;20.7;;;16.7;;
68872;SDS011;55907;50.806;12.882;2022-08-21T06:13:32;18.2;;;15.2;;
68872;SDS011;55907;50.806;12.882;2022-08-21T06:16:33;22.0;;;16.5;;
68872;SDS011;55907;50.806;12.882;2022-08-21T06:19:34;20.4;;;16.8;;
68872;SDS011;55907;50.806;12.882;2022-08-21T06:22:36;17.8;;;14.6;;
68872;SDS011;55907;50.806;12.882;2022-08-21T06:25:37;21.4;;;15.6;;
68872;SDS011;55907;50.806;12.882;2022-08-21T06:28:39;19.9;;;15.4;;
68872;SDS011;55907;50.806;12.882;2022-08-21T06:31:40;18.5;;;15.2;;
68872;SDS011;55907;50.806;12.882;2022-08-21T06:34:41;20.6;;;15.4;;
68872;SDS011;55907;50.806;12.882;2022-08-21T06:37:43;18.4;;;14.5;;
68872;SDS011;55907;50.806;12.882;2022-08-21T06:40:44;16.5;;;13.2;;
68872;SDS011;55907;50.806;12.882;2022-08-21T06:43:45;20.1;;;15.5;;
68872;SDS011;55907;50.806;12.882;2022-08-21T06:46:47;17.2;;;13.4;;
68872;SDS011;55907;50.806;12.882;2022-08-21T06:49:48;17.9;;;13.4;;
68872;SDS011;55907;50.806;12.882;2022-08-21T06:52:49;16.2;;;13.2;;
68872;SDS011;55907;50.806;12.882;2022-08-21T06:55:51;17.0;;;13.0;;
68872;SDS011;55907;50.806;12.882;2022-08-21T06:58:52;18.7;;;13.0;;
68872;SDS011;55907;50.806;12.882;2022-08-21T07:01:54;16.4;;;12.5;;
68872;SDS011;55907;50.806;12.882;2022-08-21T07:04:55;16.1;;;12.7;;
68872;SDS011;55907;50.806;12.882;2022-08-21T07:07:56;16.4;;;12.4;;
68872;SDS011;55907;50.806;12.882;2022-08-21T07:10:59;15.2;;;12.2;;
68872;SDS011;55907;50.806;12.882;2022-08-21T07:13:59;17.4;;;12.1;;
68872;SDS011;55907;50.806;12.882;2022-08-21T07:17:00;14.7;;;11.5;;
68872;SDS011;55907;50.806;12.882;2022-08-21T07:20:02;17.0;;;12.0;;
68872;SDS011;55907;50.806;12.882;2022-08-21T07:23:05;14.9;;;11.1;;
68872;SDS011;55907;50.806;12.882;2022-08-21T07:26:05;15.9;;;12.2;;
68872;SDS011;55907;50.806;12.882;2022-08-21T07:29:06;16.8;;;13.3;;
68872;SDS011;55907;50.806;12.882;2022-08-21T07:32:07;20.0;;;13.9;;
68872;SDS011;55907;50.806;12.882;2022-08-21T07:35:09;16.9;;;14.6;;
68872;SDS011;55907;50.806;12.882;2022-08-21T07:38:10;23.0;;;18.1;;
68872;SDS011;55907;50.806;12.882;2022-08-21T07:41:13;16.4;;;12.8;;
68872;SDS011;55907;50.806;12.882;2022-08-21T07:44:13;17.5;;;12.7;;
68872;SDS011;55907;50.806;12.882;2022-08-21T07:47:14;16.0;;;12.5;;
68872;SDS011;55907;50.806;12.882;2022-08-21T07:50:16;19.5;;;15.1;;
68872;SDS011;55907;50.806;12.882;2022-08-21T07:53:17;16.2;;;13.6;;
68872;SDS011;55907;50.806;12.882;2022-08-21T07:56:18;17.6;;;14.2;;
68872;SDS011;55907;50.806;12.882;2022-08-21T07:59:20;16.8;;;12.6;;
68872;SDS011;55907;50.806;12.882;2022-08-21T08:02:22;18.2;;;13.2;;
68872;SDS011;55907;50.806;12.882;2022-08-21T08:05:23;15.3;;;11.8;;
68872;SDS011;55907;50.806;12.882;2022-08-21T08:08:24;14.4;;;11.8;;
68872;SDS011;55907;50.806;12.882;2022-08-21T08:11:25;15.3;;;11.9;;
68872;SDS011;55907;50.806;12.882;2022-08-21T08:14:26;14.1;;;11.7;;
68872;SDS011;55907;50.806;12.882;2022-08-21T08:23:31;13.1;;;10.3;;
68872;SDS011;55907;50.806;12.882;2022-08-21T08:26:32;15.3;;;10.4;;
68872;SDS011;55907;50.806;12.882;2022-08-21T08:29:33;14.2;;;10.8;;
68872;SDS011;55907;50.806;12.882;2022-08-21T08:32:35;13.7;;;10.3;;
68872;SDS011;55907;50.806;12.882;2022-08-21T08:35:36;13.2;;;10.1;;
68872;SDS011;55907;50.806;12.882;2022-08-21T08:38:37;12.8;;;10.0;;
68872;SDS011;55907;50.806;12.882;2022-08-21T08:41:39;12.3;;;9.5;;
68872;SDS011;55907;50.806;12.882;2022-08-21T08:44:40;10.0;;;8.9;;
68872;SDS011;55907;50.806;12.882;2022-08-21T08:47:42;15.4;;;11.1;;
68872;SDS011;55907;50.806;12.882;2022-08-21T08:50:44;10.9;;;9.3;;
68872;SDS011;55907;50.806;12.882;2022-08-21T08:53:46;12.1;;;9.2;;
68872;SDS011;55907;50.806;12.882;2022-08-21T08:56:45;10.7;;;8.9;;
68872;SDS011;55907;50.806;12.882;2022-08-21T08:59:48;10.2;;;7.5;;
68872;SDS011;55907;50.806;12.882;2022-08-21T09:02:48;12.5;;;7.5;;
68872;SDS011;55907;50.806;12.882;2022-08-21T09:05:52;9.9;;;7.3;;
68872;SDS011;55907;50.806;12.882;2022-08-21T09:08:53;9.6;;;6.8;;
68872;SDS011;55907;50.806;12.882;2022-08-21T09:11:54;11.3;;;7.7;;
68872;SDS011;55907;50.806;12.882;2022-08-21T09:14:58;9.9;;;7.5;;
68872;SDS011;55907;50.806;12.882;2022-08-21T09:18:02;10.0;;;6.2;;
68872;SDS011;55907;50.806;12.882;2022-08-21T09:21:00;8.2;;;5.7;;
68872;SDS011;55907;50.806;12.882;2022-08-21T09:23:59;8.1;;;5.2;;
68872;SDS011;55907;50.806;12.882;2022-08-21T09:27:01;7.8;;;5.0;;
68872;SDS011;55907;50.806;12.882;2022-08-21T09:30:00;8.5;;;4.9;;
68872;SDS011;55907;50.806;12.882;2022-08-21T09:33:01;6.2;;;4.5;;
68872;SDS011;55907;50.806;12.882;2022-08-21T09:36:03;6.3;;;4.2;;
68872;SDS011;55907;50.806;12.882;2022-08-21T09:39:04;6.9;;;4.0;;
68872;SDS011;55907;50.806;12.882;2022-08-21T09:42:06;5.3;;;3.5;;
68872;SDS011;55907;50.806;12.882;2022-08-21T09:45:09;7.3;;;3.7;;
68872;SDS011;55907;50.806;12.882;2022-08-21T09:48:09;6.4;;;4.1;;
68872;SDS011;55907;50.806;12.882;2022-08-21T09:51:10;6.0;;;3.2;;
68872;SDS011;55907;50.806;12.882;2022-08-21T09:54:14;5.3;;;3.8;;
68872;SDS011;55907;50.806;12.882;2022-08-21T09:57:13;5.4;;;3.3;;
68872;SDS011;55907;50.806;12.882;2022-08-21T10:00:15;7.5;;;3.3;;
68872;SDS011;55907;50.806;12.882;2022-08-21T10:03:20;5.5;;;3.3;;
68872;SDS011;55907;50.806;12.882;2022-08-21T10:06:24;6.1;;;3.2;;
68872;SDS011;55907;50.806;12.882;2022-08-21T10:09:18;6.0;;;3.0;;
68872;SDS011;55907;50.806;12.882;2022-08-21T10:12:19;5.7;;;3.0;;
68872;SDS011;55907;50.806;12.882;2022-08-21T10:15:21;5.8;;;2.7;;
68872;SDS011;55907;50.806;12.882;2022-08-21T10:18:22;5.2;;;3.2;;
68872;SDS011;55907;50.806;12.882;2022-08-21T10:21:23;4.7;;;2.8;;
68872;SDS011;55907;50.806;12.882;2022-08-21T10:24:25;5.0;;;2.2;;
68872;SDS011;55907;50.806;12.882;2022-08-21T10:27:27;5.2;;;2.3;;
68872;SDS011;55907;50.806;12.882;2022-08-21T10:30:35;5.5;;;2.2;;
68872;SDS011;55907;50.806;12.882;2022-08-21T10:33:30;6.0;;;2.3;;
68872;SDS011;55907;50.806;12.882;2022-08-21T10:36:29;6.3;;;2.6;;
68872;SDS011;55907;50.806;12.882;2022-08-21T10:39:31;5.4;;;2.7;;
68872;SDS011;55907;50.806;12.882;2022-08-21T10:42:33;4.9;;;2.6;;
68872;SDS011;55907;50.806;12.882;2022-08-21T10:45:36;7.9;;;2.9;;
68872;SDS011;55907;50.806;12.882;2022-08-21T10:48:35;6.7;;;3.4;;
68872;SDS011;55907;50.806;12.882;2022-08-21T10:51:35;5.8;;;3.0;;
68872;SDS011;55907;50.806;12.882;2022-08-21T10:54:37;9.0;;;4.1;;
68872;SDS011;55907;50.806;12.882;2022-08-21T10:57:39;7.1;;;3.4;;
68872;SDS011;55907;50.806;12.882;2022-08-21T11:00:40;6.8;;;3.4;;
68872;SDS011;55907;50.806;12.882;2022-08-21T11:03:41;5.8;;;3.5;;
68872;SDS011;55907;50.806;12.882;2022-08-21T11:06:43;5.7;;;2.4;;
68872;SDS011;55907;50.806;12.882;2022-08-21T11:09:43;7.7;;;4.2;;
68872;SDS011;55907;50.806;12.882;2022-08-21T11:12:46;5.9;;;2.5;;
68872;SDS011;55907;50.806;12.882;2022-08-21T11:18:49;4.8;;;2.4;;
68872;SDS011;55907;50.806;12.882;2022-08-21T11:21:48;6.2;;;2.6;;
68872;SDS011;55907;50.806;12.882;2022-08-21T11:24:50;6.3;;;2.5;;
68872;SDS011;55907;50.806;12.882;2022-08-21T11:27:52;5.1;;;2.6;;
68872;SDS011;55907;50.806;12.882;2022-08-21T11:33:57;4.2;;;2.5;;
68872;SDS011;55907;50.806;12.882;2022-08-21T11:36:55;3.4;;;2.1;;
68872;SDS011;55907;50.806;12.882;2022-08-21T11:39:58;8.4;;;2.7;;
68872;SDS011;55907;50.806;12.882;2022-08-21T11:42:59;5.4;;;2.4;;
68872;SDS011;55907;50.806;12.882;2022-08-21T11:46:00;5.2;;;2.2;;
68872;SDS011;55907;50.806;12.882;2022-08-21T11:49:03;4.9;;;2.1;;
68872;SDS011;55907;50.806;12.882;2022-08-21T11:52:03;14.6;;;10.1;;
68872;SDS011;55907;50.806;12.882;2022-08-21T11:55:03;6.1;;;2.1;;
68872;SDS011;55907;50.806;12.882;2022-08-21T11:58:05;5.9;;;2.4;;
68872;SDS011;55907;50.806;12.882;2022-08-21T12:01:06;4.5;;;2.2;;
68872;SDS011;55907;50.806;12.882;2022-08-21T12:04:08;4.9;;;2.2;;
68872;SDS011;55907;50.806;12.882;2022-08-21T12:07:10;5.1;;;2.3;;
68872;SDS011;55907;50.806;12.882;2022-08-21T12:10:10;4.9;;;2.4;;
68872;SDS011;55907;50.806;12.882;2022-08-21T12:13:11;6.0;;;2.7;;
68872;SDS011;55907;50.806;12.882;2022-08-21T12:16:12;5.6;;;2.0;;
68872;SDS011;55907;50.806;12.882;2022-08-21T12:19:14;5.9;;;2.1;;
68872;SDS011;55907;50.806;12.882;2022-08-21T12:22:14;6.0;;;2.7;;
68872;SDS011;55907;50.806;12.882;2022-08-21T12:25:17;7.1;;;3.2;;
68872;SDS011;55907;50.806;12.882;2022-08-21T12:28:21;21.7;;;18.2;;
68872;SDS011;55907;50.806;12.882;2022-08-21T12:31:21;6.9;;;2.5;;
68872;SDS011;55907;50.806;12.882;2022-08-21T12:34:20;4.7;;;2.1;;
68872;SDS011;55907;50.806;12.882;2022-08-21T12:37:22;4.9;;;2.3;;
68872;SDS011;55907;50.806;12.882;2022-08-21T12:40:24;5.5;;;1.8;;
68872;SDS011;55907;50.806;12.882;2022-08-21T12:43:25;5.3;;;2.2;;
68872;SDS011;55907;50.806;12.882;2022-08-21T12:46:27;5.0;;;2.1;;
68872;SDS011;55907;50.806;12.882;2022-08-21T12:49:28;5.8;;;2.6;;
68872;SDS011;55907;50.806;12.882;2022-08-21T12:52:29;4.6;;;2.2;;
68872;SDS011;55907;50.806;12.882;2022-08-21T12:55:30;5.7;;;2.2;;
68872;SDS011;55907;50.806;12.882;2022-08-21T12:58:31;7.9;;;4.9;;
68872;SDS011;55907;50.806;12.882;2022-08-21T13:01:32;5.0;;;2.3;;
68872;SDS011;55907;50.806;12.882;2022-08-21T13:04:34;4.7;;;2.7;;
68872;SDS011;55907;50.806;12.882;2022-08-21T13:07:35;5.9;;;3.1;;
68872;SDS011;55907;50.806;12.882;2022-08-21T13:10:36;6.4;;;2.4;;
68872;SDS011;55907;50.806;12.882;2022-08-21T13:13:37;5.4;;;2.5;;
68872;SDS011;55907;50.806;12.882;2022-08-21T13:16:38;6.3;;;2.1;;
68872;SDS011;55907;50.806;12.882;2022-08-21T13:19:39;4.8;;;2.3;;
68872;SDS011;55907;50.806;12.882;2022-08-21T13:22:41;4.1;;;1.9;;
68872;SDS011;55907;50.806;12.882;2022-08-21T13:25:42;3.7;;;2.1;;
68872;SDS011;55907;50.806;12.882;2022-08-21T13:28:44;5.8;;;2.5;;
68872;SDS011;55907;50.806;12.882;2022-08-21T13:31:47;4.2;;;2.7;;
68872;SDS011;55907;50.806;12.882;2022-08-21T13:34:46;3.4;;;1.9;;
68872;SDS011;55907;50.806;12.882;2022-08-21T13:37:48;6.3;;;2.2;;
68872;SDS011;55907;50.806;12.882;2022-08-21T13:40:49;5.7;;;2.1;;
68872;SDS011;55907;50.806;12.882;2022-08-21T13:43:55;6.3;;;2.2;;
68872;SDS011;55907;50.806;12.882;2022-08-21T13:46:52;5.0;;;2.1;;
68872;SDS011;55907;50.806;12.882;2022-08-21T13:49:53;6.0;;;2.1;;
68872;SDS011;55907;50.806;12.882;2022-08-21T13:52:56;5.8;;;2.3;;
68872;SDS011;55907;50.806;12.882;2022-08-21T13:55:55;4.2;;;2.4;;
68872;SDS011;55907;50.806;12.882;2022-08-21T13:58:57;4.3;;;2.0;;
68872;SDS011;55907;50.806;12.882;2022-08-21T14:01:58;6.2;;;2.6;;
68872;SDS011;55907;50.806;12.882;2022-08-21T14:05:00;5.6;;;2.7;;
68872;SDS011;55907;50.806;12.882;2022-08-21T14:08:03;8.2;;;4.8;;
68872;SDS011;55907;50.806;12.882;2022-08-21T14:11:02;8.1;;;6.0;;
68872;SDS011;55907;50.806;12.882;2022-08-21T14:14:04;5.8;;;3.2;;
68872;SDS011;55907;50.806;12.882;2022-08-21T14:17:05;38.7;;;9.1;;
68872;SDS011;55907;50.806;12.882;2022-08-21T14:20:07;5.2;;;2.2;;
68872;SDS011;55907;50.806;12.882;2022-08-21T14:26:08;5.5;;;3.0;;
68872;SDS011;55907;50.806;12.882;2022-08-21T14:29:11;6.7;;;2.3;;
68872;SDS011;55907;50.806;12.882;2022-08-21T14:32:12;6.2;;;2.6;;
68872;SDS011;55907;50.806;12.882;2022-08-21T14:35:13;6.3;;;2.3;;
68872;SDS011;55907;50.806;12.882;2022-08-21T14:38:14;5.5;;;2.5;;
68872;SDS011;55907;50.806;12.882;2022-08-21T14:41:16;4.2;;;2.2;;
68872;SDS011;55907;50.806;12.882;2022-08-21T14:44:17;5.8;;;2.8;;
68872;SDS011;55907;50.806;12.882;2022-08-21T14:47:18;4.7;;;2.5;;
68872;SDS011;55907;50.806;12.882;2022-08-21T14:50:19;5.0;;;2.6;;
68872;SDS011;55907;50.806;12.882;2022-08-21T14:53:21;4.4;;;2.1;;
68872;SDS011;55907;50.806;12.882;2022-08-21T14:56:22;4.5;;;2.1;;
68872;SDS011;55907;50.806;12.882;2022-08-21T14:59:23;6.8;;;2.4;;
68872;SDS011;55907;50.806;12.882;2022-08-21T15:02:24;4.2;;;2.4;;
68872;SDS011;55907;50.806;12.882;2022-08-21T15:05:26;4.5;;;2.5;;
68872;SDS011;55907;50.806;12.882;2022-08-21T15:08:27;5.9;;;4.5;;
68872;SDS011;55907;50.806;12.882;2022-08-21T15:11:28;5.1;;;3.0;;
68872;SDS011;55907;50.806;12.882;2022-08-21T15:14:30;4.3;;;2.9;;
68872;SDS011;55907;50.806;12.882;2022-08-21T15:17:31;7.1;;;3.8;;
68872;SDS011;55907;50.806;12.882;2022-08-21T15:20:32;5.6;;;3.3;;
68872;SDS011;55907;50.806;12.882;2022-08-21T15:23:34;4.6;;;3.1;;
68872;SDS011;55907;50.806;12.882;2022-08-21T15:26:35;5.2;;;2.8;;
68872;SDS011;55907;50.806;12.882;2022-08-21T15:29:36;6.4;;;3.5;;
68872;SDS011;55907;50.806;12.882;2022-08-21T15:32:38;4.6;;;2.7;;
68872;SDS011;55907;50.806;12.882;2022-08-21T15:35:39;4.7;;;2.7;;
68872;SDS011;55907;50.806;12.882;2022-08-21T15:38:40;6.3;;;2.4;;
68872;SDS011;55907;50.806;12.882;2022-08-21T15:41:41;4.3;;;2.3;;
68872;SDS011;55907;50.806;12.882;2022-08-21T15:44:43;4.2;;;2.6;;
68872;SDS011;55907;50.806;12.882;2022-08-21T15:47:44;9.4;;;4.7;;
68872;SDS011;55907;50.806;12.882;2022-08-21T15:50:45;5.9;;;2.7;;
68872;SDS011;55907;50.806;12.882;2022-08-21T15:53:47;5.1;;;2.2;;
68872;SDS011;55907;50.806;12.882;2022-08-21T15:56:48;5.5;;;2.3;;
68872;SDS011;55907;50.806;12.882;2022-08-21T15:59:50;6.3;;;2.1;;
68872;SDS011;55907;50.806;12.882;2022-08-21T16:02:52;5.5;;;2.3;;
68872;SDS011;55907;50.806;12.882;2022-08-21T16:05:52;4.1;;;1.9;;
68872;SDS011;55907;50.806;12.882;2022-08-21T16:08:54;4.7;;;2.1;;
68872;SDS011;55907;50.806;12.882;2022-08-21T16:11:55;5.3;;;2.2;;
68872;SDS011;55907;50.806;12.882;2022-08-21T16:14:56;6.4;;;2.8;;
68872;SDS011;55907;50.806;12.882;2022-08-21T16:20:59;5.4;;;2.8;;
68872;SDS011;55907;50.806;12.882;2022-08-21T16:24:00;8.2;;;4.2;;
68872;SDS011;55907;50.806;12.882;2022-08-21T16:27:01;4.1;;;2.5;;
68872;SDS011;55907;50.806;12.882;2022-08-21T16:30:03;6.1;;;2.3;;
68872;SDS011;55907;50.806;12.882;2022-08-21T16:33:04;4.3;;;2.2;;
68872;SDS011;55907;50.806;12.882;2022-08-21T16:36:06;7.1;;;3.1;;
68872;SDS011;55907;50.806;12.882;2022-08-21T16:39:07;6.1;;;3.1;;
68872;SDS011;55907;50.806;12.882;2022-08-21T16:42:08;4.8;;;2.5;;
68872;SDS011;55907;50.806;12.882;2022-08-21T16:45:11;8.1;;;3.7;;
68872;SDS011;55907;50.806;12.882;2022-08-21T16:48:11;12.1;;;7.8;;
68872;SDS011;55907;50.806;12.882;2022-08-21T16:51:13;5.5;;;2.5;;
68872;SDS011;55907;50.806;12.882;2022-08-21T16:54:13;4.7;;;2.2;;
68872;SDS011;55907;50.806;12.882;2022-08-21T16:57:15;6.9;;;2.6;;
68872;SDS011;55907;50.806;12.882;2022-08-21T17:00:16;5.5;;;2.5;;
68872;SDS011;55907;50.806;12.882;2022-08-21T17:03:18;6.5;;;3.2;;
68872;SDS011;55907;50.806;12.882;2022-08-21T17:06:19;6.1;;;2.9;;
68872;SDS011;55907;50.806;12.882;2022-08-21T17:09:20;5.9;;;2.6;;
68872;SDS011;55907;50.806;12.882;2022-08-21T17:12:22;7.1;;;1.8;;
68872;SDS011;55907;50.806;12.882;2022-08-21T17:15:24;5.0;;;2.1;;
68872;SDS011;55907;50.806;12.882;2022-08-21T17:24:27;5.4;;;2.4;;
68872;SDS011;55907;50.806;12.882;2022-08-21T17:27:28;5.8;;;2.3;;
68872;SDS011;55907;50.806;12.882;2022-08-21T17:30:30;4.8;;;2.3;;
68872;SDS011;55907;50.806;12.882;2022-08-21T17:33:33;7.0;;;4.0;;
68872;SDS011;55907;50.806;12.882;2022-08-21T17:36:32;5.1;;;2.5;;
68872;SDS011;55907;50.806;12.882;2022-08-21T17:39:34;6.5;;;2.3;;
68872;SDS011;55907;50.806;12.882;2022-08-21T17:42:35;6.0;;;3.5;;
68872;SDS011;55907;50.806;12.882;2022-08-21T17:45:36;4.2;;;2.0;;
68872;SDS011;55907;50.806;12.882;2022-08-21T17:48:38;10.2;;;5.3;;
68872;SDS011;55907;50.806;12.882;2022-08-21T17:51:39;5.3;;;2.5;;
68872;SDS011;55907;50.806;12.882;2022-08-21T17:54:40;5.5;;;2.5;;
68872;SDS011;55907;50.806;12.882;2022-08-21T17:57:42;6.7;;;3.2;;
68872;SDS011;55907;50.806;12.882;2022-08-21T18:00:45;5.1;;;2.2;;
68872;SDS011;55907;50.806;12.882;2022-08-21T18:03:45;6.1;;;2.4;;
68872;SDS011;55907;50.806;12.882;2022-08-21T18:06:46;6.2;;;2.5;;
68872;SDS011;55907;50.806;12.882;2022-08-21T18:09:47;6.9;;;2.9;;
68872;SDS011;55907;50.806;12.882;2022-08-21T18:12:49;5.0;;;2.3;;
68872;SDS011;55907;50.806;12.882;2022-08-21T18:15:50;5.4;;;2.0;;
68872;SDS011;55907;50.806;12.882;2022-08-21T18:18:51;5.6;;;2.1;;
68872;SDS011;55907;50.806;12.882;2022-08-21T18:21:53;3.8;;;1.7;;
68872;SDS011;55907;50.806;12.882;2022-08-21T18:24:54;4.7;;;2.0;;
68872;SDS011;55907;50.806;12.882;2022-08-21T18:27:55;5.6;;;1.9;;
68872;SDS011;55907;50.806;12.882;2022-08-21T18:30:57;4.1;;;1.8;;
68872;SDS011;55907;50.806;12.882;2022-08-21T18:33:59;3.8;;;1.7;;
68872;SDS011;55907;50.806;12.882;2022-08-21T18:37:00;5.4;;;2.2;;
68872;SDS011;55907;50.806;12.882;2022-08-21T18:40:01;6.1;;;1.9;;